Time;durP1;ratioP1;P1;durP2;ratioP2;P2;SDS_P1;SDS_P2;PMS_P1;PMS_P2;Temp;Humidity;BMP_temperature;BMP_pressure;BME280_temperature;BME280_humidity;BME280_pressure;Samples;Min_cycle;Max_cycle;Signal;HPM_P1;HPM_P2
2022/08/14 00:02:41;;;;;;;3.40;1.38;;;19.20;60.30;;;;;;6270193;28;20476;-76
2022/08/14 00:05:43;;;;;;;4.20;1.40;;;19.20;60.60;;;;;;6272727;28;20045;-77
2022/08/14 00:08:45;;;;;;;3.35;1.40;;;19.10;60.70;;;;;;6274305;28;20049;-77
2022/08/14 00:11:47;;;;;;;3.85;1.33;;;19.10;60.80;;;;;;6274218;28;20041;-76
2022/08/14 00:14:48;;;;;;;2.97;1.52;;;19.00;60.80;;;;;;6280672;28;20044;-76
2022/08/14 00:17:52;;;;;;;2.15;1.15;;;19.00;61.20;;;;;;6298638;28;20049;-76
2022/08/14 00:20:55;;;;;;;2.47;1.25;;;18.90;61.60;;;;;;6296697;28;20036;-76
2022/08/14 00:23:56;;;;;;;5.15;2.60;;;18.80;61.90;;;;;;6291003;28;20063;-76
2022/08/14 00:26:59;;;;;;;2.20;1.67;;;18.70;62.00;;;;;;6290830;28;20052;-76
2022/08/14 00:30:01;;;;;;;4.53;2.50;;;18.70;62.10;;;;;;6298362;28;20131;-76
2022/08/14 00:33:04;;;;;;;3.22;1.67;;;18.70;62.10;;;;;;6298470;28;20403;-76
2022/08/14 00:36:07;;;;;;;3.30;1.80;;;18.60;62.40;;;;;;6298921;28;20048;-76
2022/08/14 00:39:13;;;;;;;2.45;1.60;;;18.60;62.50;;;;;;6298301;28;20045;-76
2022/08/14 00:42:18;;;;;;;3.83;1.50;;;18.60;62.60;;;;;;6298662;28;20415;-76
2022/08/14 00:45:21;;;;;;;6.53;1.20;;;18.60;62.70;;;;;;6298448;28;20051;-76
2022/08/14 00:48:24;;;;;;;3.00;1.77;;;18.60;62.90;;;;;;6298003;28;20427;-76
2022/08/14 00:51:28;;;;;;;2.10;0.98;;;18.50;63.10;;;;;;6298283;28;20044;-77
2022/08/14 00:54:30;;;;;;;6.65;1.70;;;18.50;63.20;;;;;;6298447;28;20121;-76
2022/08/14 00:57:34;;;;;;;3.67;1.80;;;18.40;63.70;;;;;;6298080;28;20094;-76
2022/08/14 01:00:38;;;;;;;4.30;1.55;;;18.30;64.00;;;;;;6298169;28;20040;-77
2022/08/14 01:03:41;;;;;;;4.30;1.33;;;18.20;64.30;;;;;;6297947;28;20036;-76
2022/08/14 01:06:43;;;;;;;6.60;1.88;;;18.10;64.50;;;;;;6298465;28;20062;-76
2022/08/14 01:09:47;;;;;;;2.17;1.30;;;18.10;64.80;;;;;;6297446;28;20699;-76
2022/08/14 01:12:49;;;;;;;2.83;1.30;;;17.90;65.00;;;;;;6298010;28;20040;-76
2022/08/14 01:15:54;;;;;;;3.65;1.33;;;17.80;65.40;;;;;;6296960;28;20052;-77
2022/08/14 01:22:18;;;;;;;2.00;1.42;;;17.70;65.80;;;;;;6298317;28;20048;-76
2022/08/14 01:25:20;;;;;;;2.03;1.30;;;17.70;66.00;;;;;;6297325;28;20052;-76
2022/08/14 01:28:23;;;;;;;3.97;1.50;;;17.70;66.10;;;;;;6296979;28;20411;-76
2022/08/14 01:31:27;;;;;;;3.35;1.45;;;17.70;66.10;;;;;;6297116;28;20048;-76
2022/08/14 01:34:30;;;;;;;2.13;1.52;;;17.80;66.10;;;;;;6298124;28;20054;-77
2022/08/14 01:37:33;;;;;;;2.88;1.65;;;17.80;66.10;;;;;;6296857;28;20052;-76
2022/08/14 01:40:35;;;;;;;2.53;1.33;;;17.80;66.00;;;;;;6296869;28;20067;-76
2022/08/14 01:43:47;;;;;;;6.20;1.40;;;17.80;66.00;;;;;;6296870;28;20051;-76
2022/08/14 01:46:49;;;;;;;2.35;1.70;;;17.70;66.00;;;;;;6297699;28;20052;-76
2022/08/14 01:49:53;;;;;;;2.35;1.80;;;17.70;65.90;;;;;;6296447;28;20036;-76
2022/08/14 01:52:56;;;;;;;3.38;1.70;;;17.70;66.10;;;;;;6296760;28;20118;-76
2022/08/14 01:56:00;;;;;;;2.10;1.50;;;17.80;66.00;;;;;;6296684;28;20045;-76
2022/08/14 01:59:03;;;;;;;3.50;1.50;;;17.70;65.80;;;;;;6296801;28;20075;-76
2022/08/14 02:02:11;;;;;;;2.30;1.00;;;17.70;66.00;;;;;;6296463;28;20043;-76
2022/08/14 02:05:13;;;;;;;1.33;1.20;;;17.70;66.10;;;;;;6296544;28;20072;-76
2022/08/14 02:08:17;;;;;;;5.75;1.73;;;17.70;66.10;;;;;;6296246;28;20051;-76
2022/08/14 02:11:21;;;;;;;4.38;1.52;;;17.70;65.80;;;;;;6296042;28;20040;-76
2022/08/14 02:14:23;;;;;;;3.60;1.60;;;17.60;66.00;;;;;;6296837;28;20531;-75
2022/08/14 02:17:25;;;;;;;1.70;1.40;;;17.60;66.30;;;;;;6296212;28;20051;-76
2022/08/14 02:20:32;;;;;;;3.35;1.38;;;17.60;66.40;;;;;;6296273;28;20041;-76
2022/08/14 02:23:35;;;;;;;1.33;1.20;;;17.60;66.10;;;;;;6296694;28;20052;-76
2022/08/14 02:26:40;;;;;;;1.80;1.52;;;17.60;66.50;;;;;;6296999;28;20052;-76
2022/08/14 02:29:42;;;;;;;2.90;1.33;;;17.60;66.50;;;;;;6295701;28;20051;-75
2022/08/14 02:32:44;;;;;;;2.40;1.40;;;17.60;66.60;;;;;;6296089;28;20123;-75
2022/08/14 02:35:46;;;;;;;5.32;1.52;;;17.50;66.70;;;;;;6296293;28;20040;-76
2022/08/14 02:38:49;;;;;;;2.20;1.55;;;17.50;66.80;;;;;;6296406;28;20053;-75
2022/08/14 02:41:51;;;;;;;3.00;0.93;;;17.50;66.80;;;;;;6295611;28;20044;-75
2022/08/14 02:44:53;;;;;;;2.42;1.40;;;17.50;66.90;;;;;;6295877;28;20040;-75
2022/08/14 02:47:56;;;;;;;3.25;1.38;;;17.40;66.90;;;;;;6295695;28;20044;-75
2022/08/14 02:50:58;;;;;;;1.90;1.63;;;17.40;67.00;;;;;;6296094;28;20048;-76
2022/08/14 02:54:02;;;;;;;2.10;1.67;;;17.40;67.30;;;;;;6295439;28;20045;-75
2022/08/14 02:57:05;;;;;;;2.50;1.35;;;17.40;67.30;;;;;;6295536;28;20055;-75
2022/08/14 03:00:09;;;;;;;2.10;1.23;;;17.40;67.30;;;;;;6295638;28;20047;-75
2022/08/14 03:03:10;;;;;;;5.32;1.80;;;17.30;67.30;;;;;;6295747;28;20484;-75
2022/08/14 03:06:13;;;;;;;2.60;1.70;;;17.20;67.50;;;;;;6296221;28;20056;-75
2022/08/14 03:09:17;;;;;;;2.15;1.30;;;17.20;67.50;;;;;;6295237;28;20051;-75
2022/08/14 03:12:19;;;;;;;3.25;1.35;;;17.10;67.80;;;;;;6295294;28;20404;-75
2022/08/14 03:15:21;;;;;;;4.35;1.70;;;17.10;68.00;;;;;;6295449;28;20113;-76
2022/08/14 03:18:24;;;;;;;2.95;1.83;;;17.00;68.20;;;;;;6295944;28;20053;-76
2022/08/14 03:21:30;;;;;;;2.33;1.45;;;17.00;68.50;;;;;;6295414;28;20044;-76
2022/08/14 03:24:34;;;;;;;3.40;2.05;;;17.00;68.80;;;;;;6295479;28;20143;-75
2022/08/14 03:27:36;;;;;;;3.22;1.83;;;17.00;68.80;;;;;;6295195;28;20040;-76
2022/08/14 03:30:38;;;;;;;2.65;1.63;;;17.00;68.90;;;;;;6295735;28;20044;-75
2022/08/14 03:33:40;;;;;;;3.17;1.40;;;16.90;68.90;;;;;;6295357;28;20041;-76
2022/08/14 03:36:43;;;;;;;4.15;1.40;;;16.90;68.90;;;;;;6295267;28;20052;-76
2022/08/14 03:39:46;;;;;;;4.65;1.48;;;16.90;69.10;;;;;;6296527;28;20040;-76
2022/08/14 03:42:49;;;;;;;2.05;1.30;;;17.00;69.00;;;;;;6300189;28;20055;-76
2022/08/14 03:45:51;;;;;;;2.50;1.70;;;17.00;69.30;;;;;;6299990;28;20045;-76
2022/08/14 03:48:54;;;;;;;1.42;1.13;;;17.00;69.30;;;;;;6299474;28;20048;-75
2022/08/14 03:51:56;;;;;;;2.50;1.58;;;17.00;68.90;;;;;;6299773;28;20508;-76
2022/08/14 03:54:59;;;;;;;3.20;1.42;;;17.00;69.10;;;;;;6300152;28;20053;-75
2022/08/14 03:58:01;;;;;;;2.53;1.80;;;16.90;69.30;;;;;;6299098;28;20059;-76
2022/08/14 04:01:04;;;;;;;2.42;1.48;;;16.90;69.60;;;;;;6299474;28;20040;-75
2022/08/14 04:04:06;;;;;;;1.75;1.38;;;16.90;69.90;;;;;;6299581;28;20174;-75
2022/08/14 04:07:09;;;;;;;2.55;1.27;;;16.80;70.00;;;;;;6299740;28;20052;-75
2022/08/14 04:10:13;;;;;;;2.88;1.63;;;16.80;70.10;;;;;;6299237;28;20048;-76
2022/08/14 04:13:16;;;;;;;1.98;1.52;;;16.80;70.10;;;;;;6299187;28;20052;-75
2022/08/14 04:16:21;;;;;;;2.45;1.77;;;16.80;70.10;;;;;;6299240;28;20037;-75
2022/08/14 04:19:23;;;;;;;2.80;1.80;;;16.80;70.10;;;;;;6298963;28;20530;-75
2022/08/14 04:22:25;;;;;;;4.63;1.35;;;16.80;70.00;;;;;;6299453;28;20416;-75
2022/08/14 04:25:30;;;;;;;4.10;1.70;;;16.90;70.00;;;;;;6298978;28;20060;-75
2022/08/14 04:28:32;;;;;;;1.85;1.50;;;16.90;69.90;;;;;;6298728;28;20067;-75
2022/08/14 04:31:33;;;;;;;4.82;1.70;;;17.00;69.90;;;;;;6298560;28;20408;-75
2022/08/14 04:34:38;;;;;;;4.28;1.55;;;17.00;69.90;;;;;;6299207;28;20056;-75
2022/08/14 04:44:20;;;;;;;5.55;1.80;;;17.00;70.10;;;;;;6298715;28;20499;-75
2022/08/14 04:50:45;;;;;;;2.22;1.77;;;17.10;70.60;;;;;;6298708;28;20132;-75
2022/08/14 04:53:48;;;;;;;4.22;1.60;;;17.20;70.30;;;;;;6298422;28;20059;-75
2022/08/14 04:56:52;;;;;;;2.45;1.45;;;17.40;70.00;;;;;;6298309;28;20048;-75
2022/08/14 04:59:53;;;;;;;4.15;1.88;;;17.50;69.70;;;;;;6297802;28;20052;-75
2022/08/14 05:02:56;;;;;;;3.05;1.77;;;17.70;69.30;;;;;;6298557;28;20435;-75
2022/08/14 05:06:00;;;;;;;3.67;1.73;;;17.90;69.10;;;;;;6298053;28;20079;-75
2022/08/14 05:09:03;;;;;;;12.25;4.45;;;18.10;68.60;;;;;;6297540;28;20423;-75
2022/08/14 05:12:07;;;;;;;3.03;1.33;;;18.20;68.10;;;;;;6297640;28;20408;-75
2022/08/14 05:15:09;;;;;;;3.58;1.80;;;18.40;67.40;;;;;;6298144;28;20059;-75
2022/08/14 05:18:12;;;;;;;3.28;1.27;;;18.60;67.10;;;;;;6297817;28;20052;-76
2022/08/14 05:21:14;;;;;;;4.80;1.75;;;18.70;66.70;;;;;;6297484;28;20423;-76
2022/08/14 05:24:16;;;;;;;4.30;1.55;;;18.80;66.50;;;;;;6297517;28;20049;-75
2022/08/14 05:27:20;;;;;;;4.57;1.58;;;19.00;66.00;;;;;;6297105;28;20071;-75
2022/08/14 05:30:22;;;;;;;7.18;1.30;;;19.20;65.60;;;;;;6297867;28;20055;-76
2022/08/14 05:33:27;;;;;;;1.92;1.50;;;19.40;65.10;;;;;;6297293;28;20049;-76
2022/08/14 05:36:28;;;;;;;1.58;1.33;;;19.60;64.60;;;;;;6297310;28;20540;-76
2022/08/14 05:39:31;;;;;;;2.33;1.30;;;19.80;64.00;;;;;;6296827;28;20051;-76
2022/08/14 05:42:34;;;;;;;6.00;1.58;;;20.10;63.50;;;;;;6297225;28;20051;-76
2022/08/14 05:45:36;;;;;;;4.63;1.27;;;20.50;62.80;;;;;;6297124;28;20045;-76
2022/08/14 05:48:38;;;;;;;3.45;1.42;;;21.00;61.80;;;;;;6315735;22;20049;-76
2022/08/14 05:51:40;;;;;;;1.42;1.10;;;22.30;59.50;;;;;;6271741;28;20041;-76
2022/08/14 05:54:42;;;;;;;3.60;1.33;;;23.90;55.10;;;;;;6272482;28;20455;-76
2022/08/14 05:57:50;;;;;;;3.13;1.38;;;25.50;50.70;;;;;;6286337;28;20059;-76
2022/08/14 06:00:51;;;;;;;2.20;1.35;;;26.40;48.10;;;;;;6296864;28;20045;-76
2022/08/14 06:03:53;;;;;;;1.73;1.02;;;26.80;46.80;;;;;;6296219;28;20044;-76
2022/08/14 06:06:55;;;;;;;2.28;1.27;;;27.60;46.20;;;;;;6296744;28;20055;-76
2022/08/14 06:09:57;;;;;;;7.93;1.67;;;29.40;43.20;;;;;;6296111;28;20415;-76
2022/08/14 06:13:02;;;;;;;2.15;1.30;;;31.20;40.50;;;;;;6296259;28;20064;-77
2022/08/14 06:16:04;;;;;;;1.20;0.90;;;32.20;37.40;;;;;;6296524;28;20040;-77
2022/08/14 06:19:06;;;;;;;1.15;0.98;;;32.50;36.60;;;;;;6296166;28;20051;-77
2022/08/14 06:22:08;;;;;;;4.25;1.73;;;32.00;37.00;;;;;;6296693;28;20047;-77
2022/08/14 06:25:12;;;;;;;3.00;1.10;;;31.90;36.60;;;;;;6296266;28;20044;-76
2022/08/14 06:28:18;;;;;;;1.48;0.82;;;31.50;36.90;;;;;;6295678;28;20507;-77
2022/08/14 06:31:20;;;;;;;2.80;1.30;;;30.80;37.30;;;;;;6296272;28;20049;-77
2022/08/14 06:34:21;;;;;;;1.60;0.98;;;30.00;38.30;;;;;;6296686;28;20052;-76
2022/08/14 06:37:23;;;;;;;1.38;1.00;;;29.60;39.40;;;;;;6295843;28;20051;-76
2022/08/14 06:40:26;;;;;;;2.83;1.50;;;29.40;39.40;;;;;;6296176;28;20048;-76
2022/08/14 06:43:29;;;;;;;3.20;0.95;;;29.40;39.20;;;;;;6296182;28;20048;-76
2022/08/14 06:46:31;;;;;;;3.38;0.98;;;29.30;38.70;;;;;;6296169;28;20135;-76
2022/08/14 06:49:33;;;;;;;1.35;0.77;;;29.40;38.80;;;;;;6295873;28;20518;-76
2022/08/14 06:52:35;;;;;;;1.77;1.02;;;29.90;38.30;;;;;;6295687;28;20051;-76
2022/08/14 06:55:37;;;;;;;3.15;1.08;;;30.50;37.30;;;;;;6295833;28;20040;-77
2022/08/14 06:58:40;;;;;;;3.55;1.27;;;31.20;36.60;;;;;;6268495;28;20103;-76
2022/08/14 07:08:25;;;;;;;1.02;0.90;;;32.80;34.30;;;;;;6314363;28;20036;-76
2022/08/14 07:11:27;;;;;;;2.95;0.90;;;33.60;33.70;;;;;;6292907;28;20044;-76
2022/08/14 07:14:30;;;;;;;2.15;1.25;;;34.10;32.90;;;;;;6297219;28;20060;-77
2022/08/14 07:17:31;;;;;;;3.05;1.00;;;34.70;32.50;;;;;;6300039;28;20499;-77
2022/08/14 07:20:33;;;;;;;2.15;0.98;;;35.50;32.00;;;;;;6302250;28;20040;-79
2022/08/14 07:23:36;;;;;;;1.90;1.10;;;35.50;31.90;;;;;;6301907;28;20495;-80
2022/08/14 07:26:37;;;;;;;1.23;0.75;;;34.10;33.20;;;;;;6281533;28;20052;-78
2022/08/14 07:29:41;;;;;;;2.40;1.17;;;32.50;34.70;;;;;;6275906;28;20048;-77
2022/08/14 07:32:42;;;;;;;2.53;0.75;;;31.40;36.50;;;;;;6285878;28;20118;-78
2022/08/14 07:35:44;;;;;;;3.63;1.25;;;30.90;37.40;;;;;;6278138;28;20041;-77
2022/08/14 07:38:46;;;;;;;4.97;1.20;;;30.60;37.90;;;;;;6276425;28;20049;-77
2022/08/14 07:41:48;;;;;;;2.83;1.45;;;30.20;38.20;;;;;;6275653;28;20037;-77
2022/08/14 07:44:51;;;;;;;3.50;1.35;;;29.80;38.80;;;;;;6275532;28;20052;-78
2022/08/14 07:47:55;;;;;;;4.10;1.00;;;29.40;39.50;;;;;;6274339;28;20420;-78
2022/08/14 07:50:56;;;;;;;2.35;1.33;;;29.20;39.80;;;;;;6275109;28;20053;-77
2022/08/14 07:53:58;;;;;;;2.45;1.00;;;28.90;40.20;;;;;;6274304;28;20044;-77
2022/08/14 07:57:00;;;;;;;3.63;1.35;;;28.80;40.50;;;;;;6275004;28;20053;-77
2022/08/14 08:00:08;;;;;;;3.60;1.38;;;28.80;40.60;;;;;;6274660;28;20048;-78
2022/08/14 08:03:11;;;;;;;3.35;2.35;;;28.80;41.00;;;;;;6293609;28;20045;-78
2022/08/14 08:06:13;;;;;;;2.00;0.80;;;28.90;40.70;;;;;;6275910;28;20052;-77
2022/08/14 08:09:18;;;;;;;2.85;1.17;;;28.90;40.90;;;;;;6275605;28;20052;-77
2022/08/14 08:12:20;;;;;;;3.28;1.10;;;29.10;40.50;;;;;;6276131;28;20053;-78
2022/08/14 08:15:25;;;;;;;2.33;1.20;;;29.20;40.50;;;;;;6276360;28;20059;-77
2022/08/14 08:18:27;;;;;;;7.22;1.23;;;29.50;40.10;;;;;;6277707;28;20045;-78
2022/08/14 08:21:30;;;;;;;9.38;1.83;;;29.60;40.30;;;;;;6276817;28;20056;-79
2022/08/14 08:24:32;;;;;;;0.93;0.75;;;30.10;39.70;;;;;;6281486;28;20048;-79
2022/08/14 08:27:34;;;;;;;1.80;1.13;;;30.20;38.90;;;;;;6296515;28;20056;-79
2022/08/14 08:30:40;;;;;;;3.00;1.05;;;30.40;38.60;;;;;;6283526;28;20056;-79
2022/08/14 08:33:42;;;;;;;2.03;0.90;;;30.50;38.60;;;;;;6290273;28;20052;-79
2022/08/14 08:36:45;;;;;;;0.93;0.70;;;30.50;38.30;;;;;;6276860;28;20049;-78
2022/08/14 08:39:48;;;;;;;1.33;0.95;;;30.60;38.20;;;;;;6276812;28;20396;-78
2022/08/14 08:42:50;;;;;;;2.00;1.05;;;30.60;38.20;;;;;;6276985;28;20053;-78
2022/08/14 08:46:00;;;;;;;0.95;0.80;;;30.60;37.80;;;;;;6276857;28;20053;-78
2022/08/14 08:49:02;;;;;;;7.22;1.17;;;30.50;38.00;;;;;;6277005;28;20439;-79
2022/08/14 08:52:04;;;;;;;3.55;0.77;;;30.40;38.00;;;;;;6276801;28;20045;-79
2022/08/14 08:55:06;;;;;;;2.10;1.00;;;30.60;38.10;;;;;;6276805;28;20053;-79
2022/08/14 08:58:10;;;;;;;1.35;0.80;;;30.90;37.60;;;;;;6275801;28;20044;-78
2022/08/14 09:01:13;;;;;;;2.80;0.93;;;31.30;37.00;;;;;;6278531;28;20053;-79
2022/08/14 09:04:15;;;;;;;7.97;0.77;;;31.60;36.80;;;;;;6290032;28;20052;-79
2022/08/14 09:07:17;;;;;;;3.97;1.00;;;32.00;36.00;;;;;;6276722;28;20049;-78
2022/08/14 09:10:19;;;;;;;5.45;1.08;;;32.30;35.50;;;;;;6277320;28;20049;-79
2022/08/14 09:13:24;;;;;;;1.10;0.70;;;32.70;35.30;;;;;;6278304;28;20677;-78
2022/08/14 09:16:28;;;;;;;1.98;0.88;;;33.00;34.50;;;;;;6287061;28;20045;-79
2022/08/14 09:19:29;;;;;;;0.88;0.60;;;33.20;34.10;;;;;;6275851;28;20115;-78
2022/08/14 09:22:32;;;;;;;4.13;1.50;;;33.20;33.90;;;;;;6276838;28;20045;-81
2022/08/14 09:25:34;;;;;;;2.40;0.77;;;33.40;34.00;;;;;;6276559;28;20049;-79
2022/08/14 09:28:36;;;;;;;1.65;0.63;;;33.60;33.20;;;;;;6274192;28;20049;-78
2022/08/14 09:31:44;;;;;;;2.92;0.68;;;33.60;32.70;;;;;;6282683;28;20051;-79
2022/08/14 09:34:56;;;;;;;0.82;0.50;;;33.40;32.50;;;;;;6290828;28;20048;-77
2022/08/14 09:38:10;;;;;;;2.53;0.68;;;33.60;32.30;;;;;;6296944;28;20051;-77
2022/08/14 09:41:30;;;;;;;1.42;0.50;;;33.70;32.30;;;;;;6298214;28;20131;-79
2022/08/14 09:44:44;;;;;;;1.55;0.70;;;33.70;31.90;;;;;;6297310;28;20048;-77
2022/08/14 09:47:50;;;;;;;1.25;0.65;;;33.40;32.30;;;;;;6297609;28;20117;-77
2022/08/14 09:50:53;;;;;;;3.78;0.80;;;33.10;32.20;;;;;;6277766;28;20067;-77
2022/08/14 09:54:01;;;;;;;1.33;0.93;;;33.20;32.10;;;;;;6279996;28;20075;-77
2022/08/14 09:57:05;;;;;;;0.93;0.50;;;33.20;32.20;;;;;;6282812;28;20182;-77
2022/08/14 10:00:13;;;;;;;1.75;0.85;;;33.60;32.10;;;;;;6296077;28;20048;-77
2022/08/14 10:03:31;;;;;;;0.98;0.50;;;34.60;31.10;;;;;;6290446;28;20045;-77
2022/08/14 10:06:44;;;;;;;0.90;0.70;;;35.50;30.50;;;;;;6271763;28;20646;-76
2022/08/14 10:09:50;;;;;;;2.03;0.77;;;35.50;29.60;;;;;;6273108;28;20052;-77
2022/08/14 10:12:51;;;;;;;1.42;0.90;;;35.20;30.00;;;;;;6292812;28;20443;-77
2022/08/14 10:15:59;;;;;;;2.70;0.70;;;35.00;30.10;;;;;;6282255;28;20040;-78
2022/08/14 10:19:05;;;;;;;2.25;0.60;;;34.60;30.00;;;;;;6271759;28;20489;-77
2022/08/14 10:22:09;;;;;;;0.90;0.70;;;34.50;30.30;;;;;;6287285;28;20052;-76
2022/08/14 10:25:13;;;;;;;2.35;0.70;;;34.10;30.00;;;;;;6279701;28;20041;-76
2022/08/14 10:28:16;;;;;;;3.53;1.00;;;34.10;30.10;;;;;;6282787;28;20064;-76
2022/08/14 10:31:20;;;;;;;2.22;0.70;;;34.00;30.20;;;;;;6292039;28;20063;-77
2022/08/14 10:34:23;;;;;;;1.65;0.70;;;34.10;29.80;;;;;;6244086;28;20050;-77
2022/08/14 10:37:25;;;;;;;3.80;0.80;;;34.20;29.60;;;;;;6271275;28;20052;-77
2022/08/14 10:40:29;;;;;;;4.75;0.85;;;34.20;30.10;;;;;;6271845;28;20049;-77
2022/08/14 10:43:32;;;;;;;2.15;0.80;;;34.20;30.00;;;;;;6270860;28;20048;-77
2022/08/14 10:46:40;;;;;;;1.27;0.68;;;34.10;30.60;;;;;;6271527;28;20059;-77
2022/08/14 10:49:58;;;;;;;2.60;0.88;;;34.30;30.50;;;;;;6271166;28;20060;-77
2022/08/14 10:53:04;;;;;;;;;;;34.30;30.10;;;;;;6272133;28;20132;-77
2022/08/14 10:56:12;;;;;;;1.58;0.55;;;34.40;29.40;;;;;;6273323;28;19921;-77
2022/08/14 10:59:14;;;;;;;2.40;0.70;;;34.50;29.10;;;;;;6271608;28;20049;-78
2022/08/14 11:02:19;;;;;;;1.42;0.68;;;34.50;28.90;;;;;;6284133;28;20044;-78
2022/08/14 11:05:25;;;;;;;1.58;0.52;;;34.80;28.90;;;;;;6291995;28;20048;-79
2022/08/14 11:08:32;;;;;;;2.85;0.57;;;35.30;28.00;;;;;;6296863;28;20487;-78
2022/08/14 11:11:43;;;;;;;0.90;0.40;;;35.50;27.40;;;;;;6288819;28;20095;-78
2022/08/14 11:14:51;;;;;;;1.20;0.60;;;35.40;26.80;;;;;;6278302;28;20312;-77
2022/08/14 11:17:55;;;;;;;0.60;0.45;;;35.70;27.10;;;;;;6271634;28;20059;-79
2022/08/14 11:21:00;;;;;;;0.88;0.50;;;36.00;26.50;;;;;;6271917;28;20520;-78
2022/08/14 11:24:05;;;;;;;0.65;0.40;;;36.20;26.40;;;;;;6271696;28;20041;-78
2022/08/14 11:27:08;;;;;;;2.65;0.50;;;36.30;26.40;;;;;;6272797;28;20080;-79
2022/08/14 11:30:13;;;;;;;0.63;0.43;;;36.60;26.30;;;;;;6281254;28;20095;-78
2022/08/14 11:33:15;;;;;;;3.13;0.40;;;36.80;26.20;;;;;;6286690;28;20488;-79
2022/08/14 11:36:23;;;;;;;2.05;0.50;;;37.00;26.30;;;;;;6274575;28;20053;-78
2022/08/14 11:39:25;;;;;;;4.00;0.60;;;37.20;26.30;;;;;;6274643;28;20049;-79
2022/08/14 11:42:28;;;;;;;1.27;0.38;;;37.30;25.80;;;;;;6273786;28;20052;-77
2022/08/14 11:45:33;;;;;;;0.63;0.47;;;37.00;26.00;;;;;;6278630;28;20508;-79
2022/08/14 11:48:46;;;;;;;0.75;0.43;;;36.90;25.80;;;;;;6301971;23;20522;-76
2022/08/14 11:51:54;;;;;;;0.77;0.60;;;37.00;25.90;;;;;;6295531;28;20045;-77
2022/08/14 11:55:00;;;;;;;3.10;0.80;;;37.00;26.00;;;;;;6295431;28;20649;-77
2022/08/14 11:58:04;;;;;;;1.40;0.50;;;37.30;25.70;;;;;;6294699;28;20110;-76
2022/08/14 12:01:08;;;;;;;1.48;0.50;;;37.40;25.70;;;;;;6291794;28;20056;-77
2022/08/14 12:04:11;;;;;;;0.70;0.40;;;37.40;25.80;;;;;;6274763;28;20045;-77
2022/08/14 12:07:15;;;;;;;0.52;0.30;;;37.50;25.90;;;;;;6274440;28;20052;-77
2022/08/14 12:10:18;;;;;;;0.95;0.40;;;37.70;25.80;;;;;;6274797;28;20063;-76
2022/08/14 12:13:20;;;;;;;3.28;0.50;;;37.60;26.00;;;;;;6273985;28;20056;-76
2022/08/14 12:16:24;;;;;;;0.90;0.40;;;37.80;26.40;;;;;;6274953;28;20118;-76
2022/08/14 12:19:27;;;;;;;2.53;0.60;;;37.80;25.80;;;;;;6275387;28;20049;-77
2022/08/14 12:22:38;;;;;;;1.15;0.40;;;37.80;25.80;;;;;;6275488;28;20500;-76
2022/08/14 12:25:40;;;;;;;2.97;0.55;;;37.80;25.70;;;;;;6275213;28;20055;-77
2022/08/14 12:28:42;;;;;;;1.58;0.50;;;37.00;25.90;;;;;;6274427;28;20067;-77
2022/08/14 12:31:44;;;;;;;0.40;0.30;;;36.80;26.20;;;;;;6272985;28;20048;-77
2022/08/14 12:34:53;;;;;;;0.55;0.45;;;36.70;26.40;;;;;;6274470;28;20049;-76
2022/08/14 12:37:57;;;;;;;4.25;0.70;;;36.30;26.40;;;;;;6273545;28;20172;-76
2022/08/14 12:41:01;;;;;;;0.88;0.45;;;36.30;26.60;;;;;;6273798;28;20049;-77
2022/08/14 12:44:06;;;;;;;1.27;0.40;;;36.20;26.50;;;;;;6274034;28;20056;-77
2022/08/14 12:47:09;;;;;;;0.90;0.50;;;36.40;26.60;;;;;;6274435;28;20053;-77
2022/08/14 12:50:12;;;;;;;2.38;0.40;;;36.80;26.20;;;;;;6273688;28;20063;-77
2022/08/14 12:53:16;;;;;;;1.55;0.50;;;37.20;26.20;;;;;;6274512;28;20045;-77
2022/08/14 12:56:18;;;;;;;0.85;0.50;;;37.40;26.00;;;;;;6274690;28;20132;-78
2022/08/14 12:59:31;;;;;;;0.80;0.40;;;38.00;25.80;;;;;;6273782;28;20052;-78
2022/08/14 13:02:38;;;;;;;0.52;0.32;;;38.50;25.60;;;;;;6277779;28;20048;-78
2022/08/14 13:05:40;;;;;;;1.45;0.47;;;38.80;25.20;;;;;;6273913;28;20052;-78
2022/08/14 13:08:45;;;;;;;0.73;0.25;;;38.70;25.30;;;;;;6276887;28;20045;-78
2022/08/14 13:11:50;;;;;;;1.25;0.40;;;38.40;25.50;;;;;;6276698;28;20243;-79
2022/08/14 13:14:52;;;;;;;0.73;0.50;;;38.40;25.60;;;;;;6277913;28;20052;-79
2022/08/14 13:17:56;;;;;;;0.50;0.40;;;38.40;25.30;;;;;;6276558;28;20060;-79
2022/08/14 13:21:00;;;;;;;1.50;0.50;;;38.60;25.40;;;;;;6278063;28;20068;-79
2022/08/14 13:24:04;;;;;;;4.43;0.50;;;39.00;25.70;;;;;;6276945;28;20413;-78
2022/08/14 13:27:08;;;;;;;0.47;0.35;;;38.80;25.60;;;;;;6277987;28;20059;-79
2022/08/14 13:30:11;;;;;;;2.70;0.40;;;38.40;25.40;;;;;;6276943;28;20060;-78
2022/08/14 13:33:14;;;;;;;6.82;0.65;;;38.10;25.50;;;;;;6276208;28;20049;-78
2022/08/14 13:36:16;;;;;;;0.60;0.52;;;37.70;25.60;;;;;;6277303;28;20045;-78
2022/08/14 13:39:21;;;;;;;4.60;0.70;;;37.50;25.80;;;;;;6277853;28;20059;-78
2022/08/14 13:42:25;;;;;;;1.27;0.40;;;37.50;25.80;;;;;;6277250;28;20056;-78
2022/08/14 13:45:26;;;;;;;2.15;0.60;;;37.30;25.90;;;;;;6277611;28;20131;-79
2022/08/14 13:48:30;;;;;;;0.93;0.30;;;37.50;26.00;;;;;;6277384;28;20053;-78
2022/08/14 13:51:36;;;;;;;1.75;0.68;;;37.70;25.80;;;;;;6278117;28;20496;-79
2022/08/14 13:54:44;;;;;;;3.40;0.50;;;38.00;25.70;;;;;;6279143;28;20056;-79
2022/08/14 13:57:46;;;;;;;0.68;0.45;;;38.70;25.50;;;;;;6278400;28;20045;-79
2022/08/14 14:00:51;;;;;;;2.63;0.32;;;39.40;25.40;;;;;;6278113;28;20052;-79
2022/08/14 14:03:56;;;;;;;0.77;0.60;;;39.90;25.00;;;;;;6276848;28;20052;-79
2022/08/14 14:07:01;;;;;;;0.68;0.50;;;40.10;24.50;;;;;;6278597;28;20429;-79
2022/08/14 14:10:08;;;;;;;1.05;0.63;;;40.10;24.20;;;;;;6278502;28;20463;-79
2022/08/14 14:13:10;;;;;;;0.57;0.20;;;40.00;24.10;;;;;;6276622;28;20045;-79
2022/08/14 14:16:11;;;;;;;1.25;0.40;;;39.90;24.20;;;;;;6276790;28;20051;-79
2022/08/14 14:19:18;;;;;;;2.65;0.52;;;40.00;24.80;;;;;;6277148;28;20061;-79
2022/08/14 14:22:20;;;;;;;;;;;40.20;24.40;;;;;;6276617;28;20049;-79
2022/08/14 14:25:23;;;;;;;0.95;0.60;;;40.20;24.30;;;;;;6277051;28;19921;-80
2022/08/14 14:28:30;;;;;;;4.22;0.63;;;40.20;24.20;;;;;;6276826;28;20048;-80
2022/08/14 14:31:32;;;;;;;3.00;0.57;;;40.10;24.20;;;;;;6275228;28;20492;-79
2022/08/14 14:34:36;;;;;;;1.33;0.52;;;40.00;24.20;;;;;;6276076;28;20044;-79
2022/08/14 14:37:39;;;;;;;1.58;0.50;;;39.80;24.20;;;;;;6275448;28;20048;-78
2022/08/14 14:40:45;;;;;;;2.05;0.35;;;39.70;24.40;;;;;;6277048;28;20055;-79
2022/08/14 14:43:50;;;;;;;1.85;0.70;;;39.60;24.40;;;;;;6277828;28;20052;-79
2022/08/14 14:46:52;;;;;;;3.80;0.60;;;39.40;24.40;;;;;;6277757;28;20045;-79
2022/08/14 14:49:56;;;;;;;1.80;0.93;;;39.00;24.50;;;;;;6275887;28;20492;-78
2022/08/14 14:52:58;;;;;;;1.90;0.70;;;38.70;24.40;;;;;;6276732;28;20045;-79
2022/08/14 14:56:02;;;;;;;2.40;0.82;;;38.40;24.40;;;;;;6275418;28;20518;-78
2022/08/14 14:59:04;;;;;;;3.05;0.90;;;38.10;24.60;;;;;;6276289;28;20049;-78
2022/08/14 15:02:07;;;;;;;0.90;0.73;;;37.80;24.70;;;;;;6271147;28;20048;-77
2022/08/14 15:05:12;;;;;;;4.25;0.75;;;37.60;24.70;;;;;;6271523;28;20049;-78
2022/08/14 15:08:14;;;;;;;1.25;0.82;;;37.40;24.70;;;;;;6271080;28;20052;-77
2022/08/14 15:11:17;;;;;;;1.13;0.75;;;37.20;24.80;;;;;;6271630;28;20493;-77
2022/08/14 15:14:20;;;;;;;1.55;0.40;;;36.90;24.80;;;;;;6270651;28;20053;-77
2022/08/14 15:17:22;;;;;;;1.23;0.50;;;36.50;24.60;;;;;;6270679;28;20404;-78
2022/08/14 15:20:23;;;;;;;3.63;0.95;;;36.30;25.00;;;;;;6270489;28;20052;-77
2022/08/14 15:23:25;;;;;;;2.40;0.95;;;36.00;24.70;;;;;;6271481;28;20045;-77
2022/08/14 15:26:28;;;;;;;1.55;0.98;;;36.00;24.60;;;;;;6271077;28;20045;-77
2022/08/14 15:29:30;;;;;;;2.88;0.77;;;35.90;24.50;;;;;;6269867;28;20056;-78
2022/08/14 15:32:32;;;;;;;1.63;0.98;;;35.90;24.40;;;;;;6270005;28;20095;-78
2022/08/14 15:35:34;;;;;;;2.00;0.82;;;35.90;24.50;;;;;;6270158;28;20508;-77
2022/08/14 15:38:37;;;;;;;1.33;0.93;;;35.90;24.00;;;;;;6261825;28;20511;-77
2022/08/14 15:41:40;;;;;;;3.08;0.70;;;35.80;24.00;;;;;;6274759;28;20045;-78
2022/08/14 15:44:42;;;;;;;3.40;1.08;;;35.80;23.80;;;;;;6275192;28;20045;-78
2022/08/14 15:47:44;;;;;;;6.30;1.67;;;35.60;24.50;;;;;;6274287;28;20049;-77
2022/08/14 15:50:46;;;;;;;1.67;0.90;;;35.60;24.30;;;;;;6275448;28;20064;-77
2022/08/14 15:53:48;;;;;;;0.90;0.60;;;35.50;24.00;;;;;;6274727;28;20098;-78
2022/08/14 15:56:57;;;;;;;1.83;1.00;;;35.40;24.40;;;;;;6275411;28;20068;-77
2022/08/14 16:03:20;;;;;;;1.45;0.73;;;35.20;24.60;;;;;;6274864;28;20037;-77
2022/08/14 16:06:25;;;;;;;1.50;0.60;;;35.10;24.90;;;;;;6274867;28;20694;-78
2022/08/14 16:09:27;;;;;;;0.63;0.50;;;34.90;25.10;;;;;;6274264;28;20412;-77
2022/08/14 16:12:30;;;;;;;1.30;0.77;;;34.80;25.40;;;;;;6274626;28;20060;-78
2022/08/14 16:15:32;;;;;;;2.22;1.15;;;34.70;25.40;;;;;;6273139;28;20052;-78
2022/08/14 16:18:36;;;;;;;1.33;0.73;;;34.70;25.70;;;;;;6277906;28;20049;-78
2022/08/14 16:21:39;;;;;;;1.17;0.93;;;34.60;25.70;;;;;;6276411;28;20056;-78